Severance, Kansas
Current Conditions -  °F | °C
As of 12:53 AM on Wednesday 26 Nov 2014 (Local Time) from KSTJ Reporting Station
Overcast Overcast  
Wind Chill: 31°   Ceiling: 7000
Heat Index: 39°   Visibility: 10mi
Dew Point: 23°   Wind: 13mph
Humidity: 53%   Direction: 160°SSE
Pressure: 29.94"   Gusts: NA
Location:  39.7768°N, 95.0862°W
Report Text: KSTJ 260653Z AUTO 16011KT 10SM OVC070 04/M05 A2994 RMK AO2 SLP144 T00391050
Loading
Personal Weather Stations






























Interactive Weather Map New forecast layout! Learn more

10-Day Weather Forecast

Advertisements
Track Severe Weather on mobile